Time;durP1;ratioP1;P1;durP2;ratioP2;P2;SDS_P1;SDS_P2;PMS_P1;PMS_P2;Temp;Humidity;BMP_temperature;BMP_pressure;BME280_temperature;BME280_humidity;BME280_pressure;Samples;Min_cycle;Max_cycle;Signal;HPM_P1;HPM_P2
2023/09/19 00:02:00;;;;;;;1.88;1.23;;;21.50;71.70;;;;;;6239646;28;20089;-76
2023/09/19 00:05:05;;;;;;;5.57;1.75;;;21.50;71.80;;;;;;6240774;28;20593;-74
2023/09/19 00:08:06;;;;;;;2.28;1.08;;;21.50;71.90;;;;;;6238923;28;20064;-76
2023/09/19 00:11:08;;;;;;;3.22;1.25;;;21.50;71.20;;;;;;6232067;28;20087;-76
2023/09/19 00:14:09;;;;;;;4.65;1.80;;;21.50;71.90;;;;;;6240757;28;20064;-75
2023/09/19 00:17:12;;;;;;;2.35;1.30;;;21.50;71.90;;;;;;6240613;28;20034;-75
2023/09/19 00:20:17;;;;;;;5.15;1.40;;;21.40;71.80;;;;;;6240242;28;20135;-76
2023/09/19 00:23:19;;;;;;;2.25;1.15;;;21.50;71.90;;;;;;6240204;28;20458;-76
2023/09/19 00:26:20;;;;;;;6.32;1.58;;;21.50;71.90;;;;;;6240058;28;20030;-76
2023/09/19 00:29:23;;;;;;;1.95;1.40;;;21.50;71.90;;;;;;6240043;28;20025;-76
2023/09/19 00:32:25;;;;;;;3.15;1.48;;;21.50;71.90;;;;;;6238552;28;20033;-77
2023/09/19 00:35:27;;;;;;;2.03;1.33;;;21.50;71.80;;;;;;6222189;28;20744;-75
2023/09/19 00:38:28;;;;;;;3.55;1.52;;;21.50;71.80;;;;;;6222117;28;20036;-75
2023/09/19 00:41:30;;;;;;;5.72;1.75;;;21.60;71.80;;;;;;6240271;28;20025;-77
2023/09/19 00:44:31;;;;;;;2.47;1.63;;;21.60;71.70;;;;;;6221981;28;20041;-74
2023/09/19 00:47:32;;;;;;;4.10;1.30;;;21.60;72.50;;;;;;6240000;28;20116;-78
2023/09/19 00:50:33;;;;;;;9.63;1.70;;;21.60;71.60;;;;;;6237841;28;20537;-77
2023/09/19 00:53:34;;;;;;;3.63;2.10;;;21.50;71.60;;;;;;6239516;28;20044;-77
2023/09/19 00:56:37;;;;;;;7.97;2.20;;;21.50;71.70;;;;;;6239627;28;20030;-76
2023/09/19 00:59:38;;;;;;;3.45;2.00;;;21.50;71.50;;;;;;6239167;28;20402;-76
2023/09/19 01:02:39;;;;;;;4.20;2.40;;;21.50;71.50;;;;;;6221029;28;20128;-75
2023/09/19 01:05:41;;;;;;;5.63;2.38;;;21.50;71.50;;;;;;6239076;28;20068;-76
2023/09/19 01:08:41;;;;;;;6.75;2.45;;;21.50;71.60;;;;;;6239241;28;20120;-75
2023/09/19 01:11:46;;;;;;;12.95;2.53;;;21.40;71.80;;;;;;6224621;28;20034;-76
2023/09/19 01:14:57;;;;;;;10.70;3.25;;;21.50;72.00;;;;;;6214730;28;20788;-76
2023/09/19 01:18:27;;;;;;;5.85;2.70;;;21.40;72.00;;;;;;6215105;28;20658;-76
2023/09/19 01:21:38;;;;;;;8.43;3.53;;;21.30;72.10;;;;;;6228485;28;20078;-76
2023/09/19 01:25:13;;;;;;;8.48;3.60;;;21.30;72.00;;;;;;6238752;28;20055;-75
2023/09/19 01:28:29;;;;;;;6.90;3.70;;;21.30;72.20;;;;;;6220161;28;20041;-78
2023/09/19 01:31:37;;;;;;;8.00;3.63;;;21.30;72.30;;;;;;6214360;28;20034;-76
2023/09/19 01:34:59;;;;;;;6.70;3.20;;;21.30;72.30;;;;;;6214742;28;20112;-75
2023/09/19 01:38:00;;;;;;;7.93;3.22;;;21.30;72.40;;;;;;6214409;28;20034;-77
2023/09/19 01:41:11;;;;;;;7.38;3.92;;;21.30;72.40;;;;;;6196308;28;20096;-77
2023/09/19 01:44:22;;;;;;;8.43;4.05;;;21.30;72.40;;;;;;6214885;28;20091;-75
2023/09/19 01:47:31;;;;;;;10.10;4.05;;;21.30;72.30;;;;;;6236693;28;20033;-78
2023/09/19 01:50:36;;;;;;;7.30;3.47;;;21.30;72.30;;;;;;6219879;28;20036;-75
2023/09/19 01:53:56;;;;;;;6.93;3.42;;;21.30;72.40;;;;;;6238171;28;20076;-75
2023/09/19 01:57:26;;;;;;;8.02;3.53;;;21.20;72.40;;;;;;6236450;28;20482;-76
2023/09/19 02:00:29;;;;;;;10.20;3.53;;;21.20;72.50;;;;;;6231673;28;20044;-77
2023/09/19 02:03:31;;;;;;;13.65;3.70;;;21.30;72.60;;;;;;6220733;28;20034;-77
2023/09/19 02:06:33;;;;;;;5.80;3.33;;;21.30;72.60;;;;;;6213704;28;20355;-77
2023/09/19 02:09:35;;;;;;;7.80;3.40;;;21.30;72.50;;;;;;6212032;28;20371;-77
2023/09/19 02:12:36;;;;;;;7.82;3.40;;;21.40;72.50;;;;;;6234110;28;20038;-75
2023/09/19 02:15:37;;;;;;;9.13;3.92;;;21.40;72.30;;;;;;6238194;28;20030;-78
2023/09/19 02:18:39;;;;;;;6.13;3.45;;;21.40;72.10;;;;;;6236705;28;20030;-76
2023/09/19 02:21:40;;;;;;;7.78;3.58;;;21.30;72.10;;;;;;6237482;28;20099;-76
2023/09/19 02:24:41;;;;;;;5.80;3.83;;;21.30;72.10;;;;;;6241573;28;20160;-76
2023/09/19 02:27:43;;;;;;;11.55;3.47;;;21.30;72.30;;;;;;6241605;28;20057;-76
2023/09/19 02:30:47;;;;;;;5.47;2.80;;;21.30;72.40;;;;;;6241616;28;20095;-76
2023/09/19 02:33:48;;;;;;;5.40;3.13;;;21.30;72.40;;;;;;6243031;28;20038;-74
2023/09/19 02:36:49;;;;;;;8.43;3.38;;;21.30;72.40;;;;;;6242691;28;20116;-74
2023/09/19 02:39:50;;;;;;;5.82;3.22;;;21.20;72.60;;;;;;6242371;28;20485;-75
2023/09/19 02:42:56;;;;;;;10.35;3.17;;;21.20;72.60;;;;;;6240796;28;20037;-77
2023/09/19 02:45:58;;;;;;;5.35;3.30;;;21.20;72.70;;;;;;6242181;28;20074;-75
2023/09/19 02:48:58;;;;;;;4.63;2.90;;;21.10;72.70;;;;;;6240868;28;20167;-77
2023/09/19 02:51:59;;;;;;;8.82;3.13;;;21.10;72.80;;;;;;6241957;28;20116;-75
2023/09/19 02:55:00;;;;;;;8.63;3.45;;;21.10;72.80;;;;;;6242544;28;20034;-76
2023/09/19 02:58:02;;;;;;;4.40;3.00;;;21.00;73.00;;;;;;6242329;28;20131;-75
2023/09/19 03:01:12;;;;;;;4.07;2.60;;;21.00;73.00;;;;;;6240112;28;20026;-78
2023/09/19 03:04:19;;;;;;;4.85;2.70;;;21.00;73.20;;;;;;6241715;28;20073;-75
2023/09/19 03:07:22;;;;;;;6.88;3.10;;;21.00;73.30;;;;;;6240005;28;20041;-76
2023/09/19 03:10:24;;;;;;;4.47;2.78;;;21.00;73.20;;;;;;6237572;28;20413;-76
2023/09/19 03:13:26;;;;;;;4.63;3.00;;;21.00;73.20;;;;;;6216119;28;20030;-77
2023/09/19 03:16:27;;;;;;;3.92;1.95;;;21.00;73.20;;;;;;6215977;28;20527;-76
2023/09/19 03:19:34;;;;;;;5.30;2.67;;;21.00;73.00;;;;;;6239294;28;20174;-77
2023/09/19 03:22:36;;;;;;;7.55;2.30;;;21.00;72.90;;;;;;6240332;28;20351;-76
2023/09/19 03:25:37;;;;;;;8.02;2.40;;;21.00;72.90;;;;;;6242032;28;20056;-78
2023/09/19 03:28:38;;;;;;;4.32;2.28;;;21.00;73.00;;;;;;6241830;28;20034;-76
2023/09/19 03:31:39;;;;;;;7.53;2.42;;;21.00;72.90;;;;;;6241479;28;20025;-75
2023/09/19 03:34:43;;;;;;;5.25;2.45;;;20.90;72.80;;;;;;6238682;28;20152;-80
2023/09/19 03:37:45;;;;;;;6.90;2.88;;;21.00;72.80;;;;;;6239605;28;20061;-76
2023/09/19 03:40:46;;;;;;;4.57;2.58;;;21.00;72.80;;;;;;6239774;28;20033;-78
2023/09/19 03:43:47;;;;;;;7.95;1.98;;;20.90;72.80;;;;;;6239660;28;20045;-77
2023/09/19 03:46:48;;;;;;;8.25;2.25;;;21.00;73.00;;;;;;6232602;28;20397;-77
2023/09/19 03:49:49;;;;;;;8.40;2.78;;;21.00;73.10;;;;;;6239220;28;20033;-77
2023/09/19 03:52:50;;;;;;;5.70;2.30;;;21.00;73.00;;;;;;6239593;28;20114;-77
2023/09/19 03:55:51;;;;;;;5.80;2.55;;;21.00;73.10;;;;;;6222848;28;20048;-77
2023/09/19 03:58:53;;;;;;;4.55;2.83;;;21.00;73.00;;;;;;6239133;28;20030;-76
2023/09/19 04:01:56;;;;;;;7.72;2.90;;;21.10;72.90;;;;;;6239162;28;20045;-75
2023/09/19 04:04:57;;;;;;;9.43;3.50;;;21.10;72.80;;;;;;6238841;28;20410;-76
2023/09/19 04:07:58;;;;;;;8.32;3.30;;;21.20;72.80;;;;;;6239285;28;20128;-75
2023/09/19 04:10:59;;;;;;;11.88;3.30;;;21.30;72.70;;;;;;6238615;28;20124;-77
2023/09/19 04:14:03;;;;;;;6.65;3.53;;;21.30;72.50;;;;;;6240407;28;20021;-76
2023/09/19 04:17:05;;;;;;;6.63;3.78;;;21.30;72.50;;;;;;6238313;28;20556;-74
2023/09/19 04:20:07;;;;;;;7.70;3.35;;;21.30;72.40;;;;;;6238692;28;20342;-76
2023/09/19 04:23:08;;;;;;;6.90;2.70;;;21.30;72.40;;;;;;6239160;28;20037;-77
2023/09/19 04:26:09;;;;;;;6.65;3.22;;;21.30;72.50;;;;;;6240356;28;20029;-76
2023/09/19 04:29:11;;;;;;;9.05;3.10;;;21.20;72.40;;;;;;6238891;28;20466;-76
2023/09/19 04:32:13;;;;;;;5.15;3.08;;;21.20;72.50;;;;;;6240392;28;20747;-77
2023/09/19 04:35:14;;;;;;;4.35;3.15;;;21.30;72.50;;;;;;6239044;28;20098;-77
2023/09/19 04:38:15;;;;;;;5.50;2.70;;;21.30;72.50;;;;;;6240227;28;20030;-77
2023/09/19 04:41:17;;;;;;;6.82;3.33;;;21.30;72.60;;;;;;6238971;28;20418;-78
2023/09/19 04:44:18;;;;;;;8.18;3.30;;;21.30;72.50;;;;;;6238372;28;20041;-77
2023/09/19 04:47:19;;;;;;;5.50;3.47;;;21.30;72.40;;;;;;6238424;28;20132;-77
2023/09/19 04:50:21;;;;;;;14.05;3.75;;;21.30;72.40;;;;;;6239146;28;20057;-80
2023/09/19 04:53:21;;;;;;;7.70;3.45;;;21.30;72.50;;;;;;6239652;28;20026;-76
2023/09/19 04:56:23;;;;;;;10.27;3.45;;;21.40;72.40;;;;;;6238308;28;20037;-79
2023/09/19 04:59:24;;;;;;;11.27;4.22;;;21.40;72.30;;;;;;6238082;28;20029;-77
2023/09/19 05:02:30;;;;;;;6.78;3.75;;;21.40;72.20;;;;;;6239993;28;20037;-78
2023/09/19 05:05:31;;;;;;;8.82;4.07;;;21.40;72.20;;;;;;6239207;28;20029;-79
2023/09/19 05:08:32;;;;;;;7.13;3.15;;;21.30;72.20;;;;;;6238078;28;20123;-77
2023/09/19 05:11:33;;;;;;;9.73;3.03;;;21.30;72.10;;;;;;6230597;28;20043;-76
2023/09/19 05:14:35;;;;;;;7.50;3.25;;;21.40;72.20;;;;;;6238373;28;20426;-75
2023/09/19 05:17:36;;;;;;;4.35;2.58;;;21.40;72.10;;;;;;6239483;28;20041;-76
2023/09/19 05:20:39;;;;;;;5.97;2.90;;;21.40;71.90;;;;;;6237442;28;20367;-76
2023/09/19 05:23:39;;;;;;;4.03;2.53;;;21.40;71.80;;;;;;6238560;28;20151;-78
2023/09/19 05:26:40;;;;;;;6.50;2.17;;;21.40;71.70;;;;;;6238721;28;20037;-78
2023/09/19 05:29:41;;;;;;;11.82;2.80;;;21.40;71.60;;;;;;6238437;28;20029;-77
2023/09/19 05:32:43;;;;;;;4.53;2.67;;;21.40;71.50;;;;;;6238878;28;20392;-75
2023/09/19 05:35:46;;;;;;;5.13;3.00;;;21.30;71.40;;;;;;6237082;28;20055;-75
2023/09/19 05:38:49;;;;;;;10.88;2.67;;;21.30;71.30;;;;;;6239070;28;20029;-75
2023/09/19 05:41:50;;;;;;;5.18;2.38;;;21.30;71.20;;;;;;6238706;28;20033;-78
2023/09/19 05:44:51;;;;;;;6.00;3.17;;;21.30;71.20;;;;;;6238935;28;20091;-76
2023/09/19 05:47:55;;;;;;;14.68;4.10;;;21.30;71.00;;;;;;6230033;28;20152;-78
2023/09/19 05:50:56;;;;;;;5.38;2.78;;;21.30;70.60;;;;;;6213882;28;20139;-76
2023/09/19 05:53:57;;;;;;;6.85;3.05;;;21.30;70.30;;;;;;6214122;28;20442;-75
2023/09/19 05:56:58;;;;;;;7.20;3.75;;;21.30;70.00;;;;;;6213001;28;20497;-76
2023/09/19 05:59:59;;;;;;;9.82;3.20;;;21.30;69.90;;;;;;6213828;28;20597;-75
2023/09/19 06:03:00;;;;;;;7.30;3.00;;;21.30;69.80;;;;;;6212323;28;20395;-78
2023/09/19 06:06:02;;;;;;;11.68;3.00;;;21.30;69.70;;;;;;6212375;28;20065;-77
2023/09/19 06:09:05;;;;;;;10.65;3.67;;;21.30;69.60;;;;;;6209462;28;20049;-79
2023/09/19 06:12:06;;;;;;;4.28;2.53;;;21.40;69.70;;;;;;6221961;28;20037;-76
2023/09/19 06:15:08;;;;;;;6.65;2.95;;;21.40;69.60;;;;;;6214326;28;20088;-76
2023/09/19 06:18:19;;;;;;;9.95;2.95;;;21.50;69.60;;;;;;6213983;28;20498;-77
2023/09/19 06:21:20;;;;;;;11.82;3.20;;;21.50;70.30;;;;;;6211939;28;20034;-76
2023/09/19 06:24:21;;;;;;;8.80;2.75;;;21.50;69.40;;;;;;6213428;28;20030;-78
2023/09/19 06:27:22;;;;;;;9.30;3.08;;;21.50;69.50;;;;;;6213271;28;20026;-76
2023/09/19 06:30:24;;;;;;;11.55;3.15;;;21.40;69.50;;;;;;6213021;28;20570;-77
2023/09/19 06:33:24;;;;;;;6.32;3.05;;;21.40;69.50;;;;;;6213033;28;20510;-77
2023/09/19 06:36:25;;;;;;;3.95;2.15;;;21.40;69.40;;;;;;6212874;28;20026;-75
2023/09/19 06:39:26;;;;;;;5.75;2.58;;;21.40;69.60;;;;;;6227416;28;20030;-78
2023/09/19 06:42:28;;;;;;;6.53;2.47;;;21.20;69.70;;;;;;6225642;28;20120;-76
2023/09/19 06:45:29;;;;;;;6.13;2.50;;;21.10;70.00;;;;;;6235411;28;20078;-75
2023/09/19 06:48:29;;;;;;;8.55;2.05;;;21.00;70.40;;;;;;6235681;28;20481;-76
2023/09/19 06:51:30;;;;;;;13.02;2.67;;;20.90;70.90;;;;;;6237258;28;20351;-77
2023/09/19 06:54:34;;;;;;;5.35;2.78;;;20.90;71.30;;;;;;6237506;28;20687;-75
2023/09/19 06:57:35;;;;;;;5.47;2.53;;;20.90;71.40;;;;;;6236943;28;20459;-75
2023/09/19 07:00:37;;;;;;;9.73;4.85;;;20.90;71.30;;;;;;6237049;28;20060;-76
2023/09/19 07:03:38;;;;;;;6.38;3.95;;;20.80;71.40;;;;;;6219246;28;20084;-77
2023/09/19 07:06:40;;;;;;;4.95;2.60;;;20.80;71.50;;;;;;6210554;28;20092;-75
2023/09/19 07:09:42;;;;;;;8.55;2.80;;;20.90;71.80;;;;;;6216625;28;20705;-76
2023/09/19 07:12:43;;;;;;;7.63;2.72;;;20.90;71.70;;;;;;6216402;28;20034;-74
2023/09/19 07:15:49;;;;;;;4.78;2.83;;;21.00;71.80;;;;;;6216733;28;20436;-74
2023/09/19 07:18:50;;;;;;;4.35;2.42;;;21.00;71.80;;;;;;6231653;28;20044;-75
2023/09/19 07:21:51;;;;;;;6.93;2.60;;;21.00;71.60;;;;;;6216818;28;20026;-75
2023/09/19 07:24:52;;;;;;;7.80;2.63;;;21.00;71.60;;;;;;6216390;28;20026;-75
2023/09/19 07:27:55;;;;;;;10.25;3.25;;;21.10;71.60;;;;;;6231008;28;20368;-76
2023/09/19 07:30:56;;;;;;;5.60;2.92;;;21.20;71.60;;;;;;6216253;28;20120;-76
2023/09/19 07:33:57;;;;;;;5.72;2.60;;;21.20;71.30;;;;;;6214553;28;20048;-74
2023/09/19 07:36:58;;;;;;;4.70;2.70;;;21.20;71.20;;;;;;6213774;28;20061;-78
2023/09/19 07:40:09;;;;;;;3.78;2.45;;;21.30;70.90;;;;;;6239126;28;20033;-75
2023/09/19 07:43:10;;;;;;;11.88;4.68;;;21.40;70.70;;;;;;6238787;28;20124;-74
2023/09/19 07:46:11;;;;;;;6.53;2.10;;;21.50;70.60;;;;;;6240208;28;20040;-75
2023/09/19 07:49:12;;;;;;;7.65;2.83;;;21.60;70.20;;;;;;6240415;28;20056;-75
2023/09/19 07:52:13;;;;;;;7.03;2.78;;;21.70;70.00;;;;;;6238323;28;20474;-74
2023/09/19 07:55:17;;;;;;;4.28;2.53;;;21.80;69.90;;;;;;6237966;28;20033;-75
2023/09/19 07:58:18;;;;;;;9.82;2.90;;;21.90;69.70;;;;;;6238190;28;20041;-77
2023/09/19 08:01:19;;;;;;;7.93;2.60;;;21.90;69.30;;;;;;6239023;28;20107;-76
2023/09/19 08:04:20;;;;;;;8.35;2.20;;;22.30;69.10;;;;;;6239779;28;20527;-76
2023/09/19 08:07:22;;;;;;;4.82;2.20;;;22.50;68.50;;;;;;6239977;28;20110;-78
2023/09/19 08:10:27;;;;;;;3.60;2.33;;;22.60;67.90;;;;;;6239196;28;20060;-74
2023/09/19 08:13:28;;;;;;;2.95;1.70;;;22.70;67.10;;;;;;6238866;28;20112;-76
2023/09/19 08:16:29;;;;;;;10.65;2.45;;;22.80;66.90;;;;;;6239112;28;20048;-76
2023/09/19 08:19:31;;;;;;;3.25;1.80;;;22.80;66.60;;;;;;6236904;28;20029;-75
2023/09/19 08:22:32;;;;;;;2.47;2.10;;;22.90;66.40;;;;;;6239438;28;20124;-74
2023/09/19 08:25:34;;;;;;;5.85;2.85;;;23.00;66.20;;;;;;6237195;28;20063;-75
2023/09/19 08:28:35;;;;;;;10.65;2.80;;;23.10;65.60;;;;;;6239019;28;20113;-75
2023/09/19 08:31:36;;;;;;;3.90;2.20;;;23.30;65.50;;;;;;6237241;28;20354;-75
2023/09/19 08:34:38;;;;;;;6.47;2.38;;;23.50;65.50;;;;;;6238723;28;20036;-75
2023/09/19 08:37:39;;;;;;;5.53;2.33;;;23.50;64.70;;;;;;6237530;28;20690;-76
2023/09/19 08:40:41;;;;;;;3.55;2.15;;;23.50;63.90;;;;;;6236838;28;20072;-74
2023/09/19 08:43:43;;;;;;;5.78;2.33;;;23.60;63.90;;;;;;6237965;28;20025;-76
2023/09/19 08:46:44;;;;;;;11.73;3.08;;;23.60;63.70;;;;;;6238858;28;20049;-75
2023/09/19 08:49:51;;;;;;;7.05;2.80;;;23.70;63.30;;;;;;6238803;28;20037;-76
2023/09/19 08:52:55;;;;;;;19.13;3.08;;;23.80;63.30;;;;;;6238609;28;20127;-75
2023/09/19 08:55:57;;;;;;;4.30;2.60;;;23.80;63.30;;;;;;6238956;28;20446;-76
2023/09/19 08:59:01;;;;;;;9.57;1.98;;;23.80;63.30;;;;;;6238814;28;20029;-76
2023/09/19 09:02:03;;;;;;;12.75;2.83;;;23.90;63.00;;;;;;6237152;28;20091;-75
2023/09/19 09:05:05;;;;;;;6.25;2.22;;;24.00;62.90;;;;;;6220551;28;20037;-75
2023/09/19 09:08:06;;;;;;;4.70;2.90;;;24.10;62.50;;;;;;6238692;28;20037;-75
2023/09/19 09:11:07;;;;;;;3.40;2.13;;;24.20;62.30;;;;;;6228689;28;20148;-78
2023/09/19 09:14:08;;;;;;;3.63;2.55;;;24.30;61.80;;;;;;6214346;28;20029;-75
2023/09/19 09:17:11;;;;;;;10.98;3.13;;;24.50;61.50;;;;;;6229114;28;20052;-75
2023/09/19 09:20:13;;;;;;;11.20;4.25;;;24.50;60.70;;;;;;6228786;28;20037;-73
2023/09/19 09:23:14;;;;;;;9.15;4.40;;;24.60;60.20;;;;;;6213572;28;20096;-75
2023/09/19 09:26:14;;;;;;;6.80;4.07;;;24.50;59.70;;;;;;6212710;28;20593;-75
2023/09/19 09:29:15;;;;;;;9.88;4.85;;;24.50;59.90;;;;;;6213494;28;20088;-75
2023/09/19 09:32:36;;;;;;;10.68;4.82;;;24.60;60.00;;;;;;6222293;28;20068;-75
2023/09/19 09:35:53;;;;;;;10.50;4.47;;;24.80;59.90;;;;;;6214262;28;20049;-76
2023/09/19 09:38:55;;;;;;;5.40;3.50;;;25.00;59.50;;;;;;6212295;28;20097;-74
2023/09/19 09:41:59;;;;;;;10.27;4.18;;;25.10;58.80;;;;;;6211832;28;20105;-74
2023/09/19 09:48:38;;;;;;;3.85;2.40;;;25.10;59.20;;;;;;6233931;28;20529;-75
2023/09/19 09:51:42;;;;;;;5.47;2.70;;;25.20;58.80;;;;;;6216967;28;20041;-74
2023/09/19 09:55:05;;;;;;;6.60;2.72;;;25.20;58.20;;;;;;6216942;28;20055;-74
2023/09/19 09:58:18;;;;;;;4.07;2.45;;;25.20;58.20;;;;;;6233630;28;20072;-74
2023/09/19 10:01:20;;;;;;;3.50;2.20;;;25.20;58.00;;;;;;6216859;28;20084;-75
2023/09/19 10:04:36;;;;;;;20.00;2.55;;;25.20;57.30;;;;;;6233855;28;20044;-76
2023/09/19 10:07:40;;;;;;;7.13;2.58;;;25.20;57.00;;;;;;6234143;28;20494;-75
2023/09/19 10:13:43;;;;;;;7.50;2.90;;;25.40;57.70;;;;;;6217686;28;20211;-74
2023/09/19 10:16:49;;;;;;;4.68;2.88;;;25.60;57.60;;;;;;6233724;28;20466;-78
2023/09/19 10:19:59;;;;;;;7.80;3.15;;;25.80;58.00;;;;;;6200324;28;20076;-76
2023/09/19 10:23:03;;;;;;;10.18;4.18;;;26.10;56.90;;;;;;6234249;28;20085;-76
2023/09/19 10:26:05;;;;;;;8.55;3.22;;;26.30;56.80;;;;;;6237045;28;20048;-76
2023/09/19 10:29:07;;;;;;;4.20;2.50;;;26.50;57.10;;;;;;6237303;28;20085;-76
2023/09/19 10:32:09;;;;;;;4.78;2.47;;;26.60;55.50;;;;;;6236032;28;20041;-76
2023/09/19 10:35:12;;;;;;;9.38;3.35;;;26.80;55.00;;;;;;6236215;28;20537;-77
2023/09/19 10:38:18;;;;;;;5.43;2.50;;;27.00;55.20;;;;;;6236568;28;20051;-77
2023/09/19 10:41:21;;;;;;;7.10;2.78;;;27.30;54.20;;;;;;6237051;28;20044;-76
2023/09/19 10:44:28;;;;;;;9.68;3.97;;;27.50;52.50;;;;;;6240349;28;20033;-76
2023/09/19 10:47:30;;;;;;;5.38;2.78;;;27.70;52.10;;;;;;6240762;28;20068;-76
2023/09/19 10:51:12;;;;;;;5.18;2.50;;;27.90;51.80;;;;;;6241593;28;20366;-77
2023/09/19 10:54:17;;;;;;;5.53;2.45;;;28.00;51.70;;;;;;6241591;28;20404;-75
2023/09/19 10:57:23;;;;;;;3.00;2.00;;;28.30;50.70;;;;;;6242326;28;20398;-74
2023/09/19 11:00:27;;;;;;;3.13;2.20;;;28.30;49.90;;;;;;6241019;28;20477;-75
2023/09/19 11:03:31;;;;;;;8.63;2.20;;;28.40;49.60;;;;;;6242532;28;20153;-76
2023/09/19 11:06:31;;;;;;;3.53;2.22;;;28.50;49.40;;;;;;6241452;28;20043;-76
2023/09/19 11:09:53;;;;;;;3.88;2.30;;;28.70;48.20;;;;;;6242191;28;20427;-77
2023/09/19 11:12:55;;;;;;;2.78;1.77;;;28.90;48.50;;;;;;6242886;28;20033;-75
2023/09/19 11:15:59;;;;;;;3.60;1.80;;;29.20;47.90;;;;;;6240797;28;20427;-76
2023/09/19 11:19:04;;;;;;;2.20;2.00;;;29.60;48.20;;;;;;6240852;28;20101;-76
2023/09/19 11:22:06;;;;;;;6.57;2.35;;;30.00;47.40;;;;;;6240539;28;20033;-75
2023/09/19 11:25:50;;;;;;;4.50;2.20;;;30.50;46.70;;;;;;6217040;28;20105;-75
2023/09/19 11:29:30;;;;;;;5.32;1.75;;;30.90;45.60;;;;;;6217165;28;20132;-78
2023/09/19 11:33:09;;;;;;;3.28;1.98;;;31.30;44.80;;;;;;6217478;28;20129;-76
2023/09/19 11:36:24;;;;;;;2.40;1.75;;;31.20;43.30;;;;;;6215434;28;20592;-77
2023/09/19 11:39:26;;;;;;;1.98;1.30;;;31.00;43.10;;;;;;6215149;28;20436;-76
2023/09/19 11:42:50;;;;;;;3.47;1.85;;;31.00;43.50;;;;;;6199102;28;20037;-76
2023/09/19 11:45:57;;;;;;;2.03;1.38;;;31.30;43.50;;;;;;6230664;28;20112;-75
2023/09/19 11:49:13;;;;;;;5.03;1.67;;;31.60;43.10;;;;;;6223134;28;20117;-78
2023/09/19 11:52:24;;;;;;;2.45;1.30;;;32.10;42.60;;;;;;6239136;28;20038;-76
2023/09/19 11:55:30;;;;;;;3.05;1.75;;;32.40;40.50;;;;;;6239731;28;20033;-77
2023/09/19 11:58:33;;;;;;;2.10;1.27;;;32.50;39.70;;;;;;6222815;28;20083;-74
2023/09/19 12:01:34;;;;;;;2.50;1.05;;;32.70;39.20;;;;;;6240713;28;20036;-77
2023/09/19 12:04:37;;;;;;;1.30;1.08;;;32.70;38.10;;;;;;6240595;28;20080;-75
2023/09/19 12:07:48;;;;;;;1.83;0.80;;;32.80;38.60;;;;;;6240920;28;20034;-75
2023/09/19 12:10:50;;;;;;;2.28;1.25;;;33.10;38.30;;;;;;6233166;28;20030;-76
2023/09/19 12:13:53;;;;;;;2.92;1.27;;;33.50;38.00;;;;;;6215991;28;20038;-75
2023/09/19 12:16:56;;;;;;;1.23;0.93;;;33.90;37.30;;;;;;6230365;28;20118;-76
2023/09/19 12:19:57;;;;;;;2.78;1.20;;;34.10;36.20;;;;;;6228368;28;20025;-74
2023/09/19 12:22:58;;;;;;;1.50;0.82;;;34.40;36.10;;;;;;6238255;28;20156;-77
2023/09/19 12:26:02;;;;;;;1.25;0.80;;;34.60;35.80;;;;;;6240021;28;20054;-74
2023/09/19 12:29:14;;;;;;;1.55;0.82;;;35.10;35.10;;;;;;6239907;28;20025;-76
2023/09/19 12:32:20;;;;;;;1.35;0.88;;;36.10;34.50;;;;;;6239580;28;20481;-77
2023/09/19 12:35:35;;;;;;;0.85;0.70;;;37.00;33.40;;;;;;6240473;28;20091;-74
2023/09/19 12:38:36;;;;;;;1.80;0.90;;;37.50;32.00;;;;;;6239854;28;20462;-74
2023/09/19 12:41:39;;;;;;;2.78;0.73;;;37.50;31.20;;;;;;6236294;28;20631;-75
2023/09/19 12:44:45;;;;;;;0.80;0.57;;;36.90;31.40;;;;;;6220117;28;20037;-77
2023/09/19 12:48:20;;;;;;;4.78;1.00;;;36.80;31.20;;;;;;6240341;28;20037;-77
2023/09/19 12:51:24;;;;;;;3.40;0.50;;;37.00;30.90;;;;;;6239261;28;20041;-76
2023/09/19 12:54:25;;;;;;;2.78;0.50;;;37.70;30.20;;;;;;6239200;28;20117;-75
2023/09/19 12:57:26;;;;;;;2.15;0.50;;;38.20;29.40;;;;;;6238828;28;20086;-77
2023/09/19 13:00:44;;;;;;;2.00;0.75;;;38.80;29.00;;;;;;6238810;28;20037;-78
2023/09/19 13:03:47;;;;;;;0.60;0.60;;;39.40;28.40;;;;;;6239566;28;20033;-77
2023/09/19 13:06:52;;;;;;;0.65;0.50;;;39.70;27.50;;;;;;6239286;28;20112;-78
2023/09/19 13:10:07;;;;;;;1.17;0.75;;;39.90;27.40;;;;;;6239581;28;20542;-76
2023/09/19 13:13:27;;;;;;;4.15;0.63;;;39.80;27.10;;;;;;6215064;28;20045;-75
2023/09/19 13:16:29;;;;;;;2.13;0.60;;;39.90;27.00;;;;;;6245174;28;20464;-76
2023/09/19 13:19:54;;;;;;;0.80;0.52;;;40.30;26.90;;;;;;6261514;28;20025;-75
2023/09/19 13:22:59;;;;;;;1.00;0.40;;;40.40;26.10;;;;;;6263634;28;20076;-77
2023/09/19 13:26:00;;;;;;;1.52;0.60;;;40.40;25.80;;;;;;6263896;28;20102;-77
2023/09/19 13:29:01;;;;;;;5.82;0.60;;;40.20;25.90;;;;;;6261855;28;20032;-77
2023/09/19 13:32:02;;;;;;;2.13;0.40;;;39.20;26.30;;;;;;6263008;28;20029;-77
2023/09/19 13:35:05;;;;;;;0.47;0.47;;;38.00;27.30;;;;;;6245440;28;20096;-76
2023/09/19 13:38:09;;;;;;;3.22;0.60;;;36.70;28.20;;;;;;6257512;28;20040;-77
2023/09/19 13:41:10;;;;;;;0.80;0.68;;;35.50;29.20;;;;;;6237856;28;20077;-75
2023/09/19 13:44:11;;;;;;;0.43;0.38;;;34.40;30.30;;;;;;6236796;28;20364;-75
2023/09/19 13:47:13;;;;;;;0.98;0.52;;;33.60;31.50;;;;;;6238616;28;20061;-77
2023/09/19 13:50:14;;;;;;;4.97;0.75;;;32.90;32.50;;;;;;6238628;28;20409;-78
2023/09/19 13:53:16;;;;;;;2.60;0.90;;;32.20;33.50;;;;;;6236881;28;20051;-78
2023/09/19 13:56:17;;;;;;;7.85;1.25;;;31.50;34.70;;;;;;6238344;28;20403;-75
2023/09/19 13:59:18;;;;;;;1.00;0.70;;;31.00;35.50;;;;;;6238387;28;20040;-79
2023/09/19 14:02:19;;;;;;;0.70;0.70;;;30.60;36.10;;;;;;6237999;28;20029;-77
2023/09/19 14:05:20;;;;;;;1.05;0.70;;;30.20;36.70;;;;;;6237301;28;20536;-77
2023/09/19 14:08:23;;;;;;;2.08;0.40;;;30.00;37.40;;;;;;6237896;28;20108;-78
2023/09/19 14:11:24;;;;;;;1.17;0.80;;;29.80;38.00;;;;;;6237431;28;20037;-78
2023/09/19 14:14:25;;;;;;;0.75;0.75;;;29.60;38.30;;;;;;6238002;28;20091;-77
2023/09/19 14:17:26;;;;;;;1.95;0.95;;;29.40;38.60;;;;;;6237471;28;20021;-77
2023/09/19 14:20:28;;;;;;;1.05;0.75;;;29.30;38.70;;;;;;6238108;28;20150;-77
2023/09/19 14:23:28;;;;;;;0.70;0.70;;;29.20;38.80;;;;;;6237190;28;20037;-76
2023/09/19 14:47:07;;;;;;;3.80;0.68;;;28.80;39.50;;;;;;6218653;28;20069;-74
2023/09/19 14:50:29;;;;;;;0.98;0.70;;;28.70;39.60;;;;;;6211974;28;20081;-76
2023/09/19 14:53:34;;;;;;;1.30;0.70;;;28.70;39.70;;;;;;6210720;28;20038;-76
2023/09/19 14:56:34;;;;;;;2.42;1.00;;;28.50;39.70;;;;;;6212524;28;20133;-76
2023/09/19 14:59:37;;;;;;;2.55;0.75;;;28.50;40.00;;;;;;6212446;28;20397;-75
2023/09/19 15:02:40;;;;;;;4.22;0.68;;;28.40;40.00;;;;;;6212407;28;20033;-77
2023/09/19 15:05:41;;;;;;;2.20;0.93;;;28.30;40.00;;;;;;6211894;28;20044;-76
2023/09/19 15:08:47;;;;;;;2.60;1.00;;;28.30;40.10;;;;;;6223504;28;20045;-75
2023/09/19 15:11:48;;;;;;;2.95;0.90;;;28.30;40.20;;;;;;6235075;28;20029;-76
2023/09/19 15:14:52;;;;;;;0.80;0.60;;;28.30;40.20;;;;;;6237205;28;20033;-75
2023/09/19 15:17:53;;;;;;;1.58;1.02;;;28.30;40.30;;;;;;6224058;23;20137;-76
2023/09/19 15:20:54;;;;;;;2.85;0.70;;;28.20;40.40;;;;;;6193756;28;20120;-76
2023/09/19 15:23:55;;;;;;;0.70;0.60;;;28.20;40.40;;;;;;6226778;28;20489;-76
2023/09/19 15:26:56;;;;;;;2.55;0.90;;;28.20;40.60;;;;;;6212511;28;20057;-76
2023/09/19 15:30:00;;;;;;;4.43;0.80;;;28.20;40.70;;;;;;6215168;28;20074;-76
2023/09/19 15:33:01;;;;;;;1.45;0.93;;;28.20;40.70;;;;;;6216710;28;20105;-77
2023/09/19 15:39:56;;;;;;;2.90;0.82;;;28.20;40.60;;;;;;6230269;23;20171;-75
2023/09/19 15:47:48;;;;;;;2.28;0.98;;;28.10;40.90;;;;;;6023333;29;20721;-76
2023/09/19 15:54:56;;;;;;;2.80;1.17;;;27.80;41.10;;;;;;5910507;30;20056;-76
2023/09/19 15:58:11;;;;;;;3.15;0.95;;;27.80;41.10;;;;;;6164923;23;20514;-75
2023/09/19 16:01:25;;;;;;;2.47;0.75;;;27.80;41.50;;;;;;6238582;28;20116;-75
2023/09/19 16:04:39;;;;;;;7.57;0.98;;;27.90;41.20;;;;;;6238644;28;20045;-75
2023/09/19 16:08:07;;;;;;;2.15;0.90;;;27.80;41.10;;;;;;6240485;28;20564;-76
2023/09/19 16:11:48;;;;;;;2.28;0.90;;;27.90;41.10;;;;;;6239954;28;20045;-76
2023/09/19 16:15:11;;;;;;;5.13;1.00;;;27.80;40.80;;;;;;6239441;28;20037;-76
2023/09/19 16:18:32;;;;;;;2.28;0.90;;;27.90;40.90;;;;;;6239983;28;20057;-75
2023/09/19 16:21:59;;;;;;;1.35;0.90;;;27.90;40.90;;;;;;6238495;28;20033;-76
2023/09/19 16:25:00;;;;;;;1.20;0.80;;;27.90;40.90;;;;;;6239277;28;20060;-76
2023/09/19 16:28:05;;;;;;;1.50;1.08;;;28.00;41.10;;;;;;6237371;28;20514;-75
2023/09/19 16:31:13;;;;;;;1.40;0.80;;;27.80;41.10;;;;;;6238824;28;20038;-76
2023/09/19 16:34:21;;;;;;;2.10;1.00;;;27.70;41.30;;;;;;6238943;28;20045;-74
2023/09/19 16:37:25;;;;;;;3.00;1.10;;;27.60;41.50;;;;;;6238656;28;20418;-75
2023/09/19 16:40:28;;;;;;;4.88;1.00;;;27.60;41.70;;;;;;6237422;28;20434;-75